Aviation Digital Data Service (ADDS)

Output produced by METARs form (1000 UTC 27 May 2017)
found at http://www.aviationweather.gov/adds/metars/
 
KDUJ 270953Z AUTO 07003KT M1/4SM FG VV003 09/08 A2990 RMK AO2 SLP124 T00890078
KDUJ 270853Z AUTO 09005KT 1/4SM FG VV002 09/08 A2990 RMK AO2 SLP125 T00890078 58006
KDUJ 270843Z AUTO 09004KT 1/4SM FG VV003 09/08 A2990 RMK AO2 T00890078
KDUJ 270808Z AUTO 00000KT 3/4SM BR CLR 10/09 A2991 RMK AO2 T01000089
KDUJ 270753Z AUTO 00000KT 1 3/4SM BR CLR 10/09 A2992 RMK AO2 SLP130 T01000089
KDUJ 270750Z AUTO 00000KT 1SM BR CLR 09/08 A2992 RMK AO2
KDUJ 270737Z AUTO 24003KT 1/2SM FG VV002 09/08 A2992 RMK AO2 T00890078
KDUJ 270653Z AUTO 00000KT 1/4SM FG VV003 10/09 A2991 RMK AO2 SLP129 T01000089
KDUJ 270620Z AUTO 00000KT 1/4SM FG VV003 09/08 A2992 RMK AO2 T00940078
KDUJ 270610Z AUTO 00000KT 1/4SM FG CLR 10/09 A2992 RMK AO2 T01000089
KDUJ 270558Z AUTO 00000KT 3/4SM BR CLR 11/09 A2992 RMK AO2 T01060094
KDUJ 270553Z AUTO 00000KT 2 1/2SM BR CLR 11/09 A2992 RMK AO2 SLP132 T01060094 10133 20094 55004
KDUJ 270547Z AUTO 00000KT 3SM BR CLR 11/09 A2992 RMK AO2
KDUJ 270534Z AUTO 00000KT 1 1/2SM BR CLR 10/09 A2992 RMK AO2 T01000089
KDUJ 270530Z AUTO 00000KT 3SM BR CLR 11/09 A2992 RMK AO2 T01060094
KDUJ 270523Z AUTO 00000KT 2 1/2SM BR CLR 10/09 A2991 RMK AO2 T01000089
KDUJ 270516Z AUTO 00000KT 1/2SM FG CLR 10/09 A2991 RMK AO2 T01000089
KDUJ 270508Z AUTO 00000KT 1 1/4SM BR FEW044 10/09 A2991 RMK AO2 T01000094
KDUJ 270453Z AUTO 00000KT 7SM BKN044 11/09 A2991 RMK AO2 SLP126 T01110094 401560106
KDUJ 270353Z AUTO 24003KT 8SM BKN045 11/10 A2993 RMK AO2 SLP132 T01110100
KDUJ 270253Z AUTO 28003KT 10SM OVC044 12/10 A2993 RMK AO2 SLP135 T01220100 53011
KDUJ 270153Z AUTO 30005KT 10SM OVC043 13/10 A2991 RMK AO2 SLP128 T01280100
KDUJ 270053Z AUTO 30007KT 10SM OVC037 13/10 A2990 RMK AO2 SLP125 T01280100
KDUJ 262353Z AUTO 29006G15KT 10SM OVC037 13/10 A2990 RMK AO2 SLP124 60002 T01330100 10150 20133 53013
KDUJ 262253Z AUTO 29009KT 10SM FEW020 OVC038 14/10 A2988 RMK AO2 SLP115 T01390100
KDUJ 262250Z AUTO 30009KT 10SM SCT022 OVC038 14/10 A2988 RMK AO2
KDUJ 262216Z AUTO 30009G14KT 10SM FEW019 BKN026 OVC047 14/10 A2987 RMK AO2 T01440100
KDUJ 262153Z AUTO 30008KT 10SM FEW020 OVC043 14/10 A2986 RMK AO2 SLP110 T01440100
KDUJ 262119Z AUTO 29008KT 10SM FEW019 BKN036 OVC043 14/11 A2985 RMK AO2 T01390106
KDUJ 262108Z AUTO 30011KT 9SM SCT020 BKN025 OVC036 14/10 A2984 RMK AO2 T01390100
KDUJ 262053Z AUTO 29009KT 10SM FEW025 OVC032 14/10 A2984 RMK AO2 SLP102 60002 T01440100 51013
KDUJ 262008Z AUTO 28008KT 10SM FEW016 SCT026 OVC032 14/11 A2983 RMK AO2 T01440106
KDUJ 261953Z AUTO 28010G16KT 10SM SCT018 BKN026 OVC036 14/11 A2983 RMK AO2 SLP099 T01390111
KDUJ 261853Z AUTO 29008KT 10SM FEW010 SCT016 OVC028 14/12 A2981 RMK AO2 RAB06E38 SLP093 P0002 T01390117
KDUJ 261846Z AUTO 29009G18KT 10SM SCT010 BKN016 OVC030 13/11 A2981 RMK AO2 RAB06E38 P0002 T01330111
KDUJ 261835Z AUTO 28013G19KT 3SM -RA BR SCT008 BKN014 OVC021 13/11 A2981 RMK AO2 RAB06 P0002 T01330111
KDUJ 261823Z AUTO 27012G22KT 1 3/4SM -RA BR SCT008 BKN014 OVC022 13/11 A2981 RMK AO2 RAB06 P0001 T01330111
KDUJ 261813Z AUTO 27011KT 3SM -RA BR SCT008 BKN012 OVC022 14/12 A2980 RMK AO2 RAB06 P0000 T01390122
KDUJ 261808Z AUTO 27011G19KT 2SM -RA BR SCT007 BKN010 OVC026 13/12 A2980 RMK AO2 VIS 1 1/4V5 RAB06 P0000 T01330117
KDUJ 261753Z AUTO 28011G15KT 8SM FEW010 BKN020 OVC037 14/12 A2980 RMK AO2 SLP088 60001 T01390117 10156 20122 53013
KDUJ 261744Z AUTO 27011KT 3SM HZ SCT010 BKN025 OVC040 14/11 A2980 RMK AO2 T01390111
KDUJ 261734Z AUTO 28013G18KT 9SM FEW016 BKN030 OVC038 15/11 A2979 RMK AO2 T01500111
KDUJ 261653Z AUTO 27013G20KT 8SM FEW016 BKN028 OVC035 14/11 A2979 RMK AO2 SLP084 T01390106
KDUJ 261633Z AUTO 26014G20KT 10SM FEW018 BKN034 OVC044 15/11 A2978 RMK AO2 T01500106
KDUJ 261626Z AUTO 26011KT 10SM SCT020 BKN024 OVC044 15/11 A2978 RMK AO2 T01500106
KDUJ 261610Z AUTO 29010G22KT 250V310 10SM FEW018 SCT025 OVC046 16/11 A2977 RMK AO2 T01560106
KDUJ 261553Z AUTO 27012G18KT 10SM SCT017 BKN025 OVC047 16/11 A2977 RMK AO2 SLP077 T01560106
KDUJ 261453Z AUTO 29013KT 10SM SCT012 BKN021 OVC026 14/11 A2976 RMK AO2 SLP075 60001 T01390106 51014
KDUJ 261429Z AUTO 29008KT 10SM BKN012 BKN016 OVC028 13/11 A2975 RMK AO2 T01280106
KDUJ 261353Z AUTO 28015G18KT 10SM FEW009 BKN016 OVC024 13/11 A2974 RMK AO2 SLP070 T01280106
KDUJ 261253Z AUTO 28008KT 10SM BKN008 OVC015 13/11 A2972 RMK AO2 RAE1154 SLP061 P0001 T01280111
KDUJ 261219Z AUTO 27010KT 5SM BR OVC006 12/11 A2970 RMK AO2 RAE1154 P0000 T01220111
KDUJ 261202Z AUTO 27011G20KT 2SM BR OVC005 12/11 A2969 RMK AO2 RAE1154 CIG 003V008 P0000 T01220111
KDUJ 261148Z AUTO 27009KT 1 3/4SM -RA BR OVC005 12/11 A2968 RMK AO2 RAB44 CIG 003V008 SLP048 P0001 60007 70019 T01220111 10128 20122 53014
KDUJ 261147Z AUTO 27008KT 1 3/4SM -RA BR OVC005 12/11 A2968 RMK AO2 RAB44 CIG 003V008 P0001
KDUJ 261138Z AUTO 27010KT 3SM BR OVC005 12/11 A2968 RMK AO2 CIG 003V008 T01220111
KDUJ 261119Z AUTO 28011KT 1 1/4SM BR OVC005 12/11 A2967 RMK AO2 CIG 002V010 T01220111
KDUJ 261109Z AUTO 27009KT 2 1/2SM BR OVC005 12/11 A2967 RMK AO2 CIG 002V010 T01220111
KDUJ 261104Z AUTO 27011KT 3SM BR OVC003 12/11 A2966 RMK AO2 CIG 002V006 T01220111
KDUJ 261053Z AUTO 26012KT 1SM BR OVC003 12/11 A2966 RMK AO2 SLP039 P0002 T01220111
KDUJ 261048Z AUTO 26010KT 1SM BR OVC003 12/11 A2966 RMK AO2 P0002
KDUJ 261024Z AUTO 25010KT 3/4SM BR OVC003 12/11 A2965 RMK AO2 P0001 T01220111
KDUJ 261007Z AUTO 25008KT 1SM BR OVC004 12/11 A2965 RMK AO2 CIG 002V007 P0001 T01220111
KDUJ 260953Z AUTO 25008KT 1 3/4SM BR OVC005 12/11 A2964 RMK AO2 RAB01E46 CIG 003V007 SLP032 P0002 T01220111
KDUJ 260928Z AUTO 25008KT 5SM -RA BR OVC005 12/11 A2963 RMK AO2 RAB01 CIG 003V008 P0001 T01220111
KDUJ 260904Z AUTO 25010KT 5SM -RA BR OVC004 12/11 A2963 RMK AO2 RAB01 CIG 002V008 P0000 T01220111
KDUJ 260853Z AUTO 26008KT 5SM BR OVC005 12/11 A2962 RMK AO2 CIG 002V006 SLP026 60002 T01220111 53013
KDUJ 260753Z AUTO 26009KT 6SM BR BKN005 OVC017 12/11 A2960 RMK AO2 RAE00 CIG 002V010 SLP020 P0000 T01220111
KDUJ 260742Z AUTO 25010KT 3SM BR BKN005 OVC009 12/11 A2960 RMK AO2 RAE00 CIG 002V008 P0000 T01220111
KDUJ 260740Z AUTO 26010KT 2 1/2SM BR BKN003 OVC007 12/11 A2960 RMK AO2 RAE00 P0000 T01220111
KDUJ 260711Z AUTO 26006KT 5SM BR BKN004 OVC008 12/11 A2959 RMK AO2 RAE00 P0000 T01220111
KDUJ 260658Z AUTO 27006KT 3SM -RA BR FEW003 BKN006 OVC019 12/11 A2959 RMK AO2 P0000 T01220111
KDUJ 260653Z AUTO 25006KT 1 3/4SM -RA BR BKN006 OVC019 12/11 A2959 RMK AO2 RAB45 SLP016 P0002 T01220111
KDUJ 260646Z AUTO 25006KT 2 1/2SM -RA BR BKN006 BKN017 OVC022 12/11 A2959 RMK AO2 RAB45 P0001 T01220111
KDUJ 260623Z AUTO 25006KT 8SM FEW007 BKN015 OVC019 13/11 A2959 RMK AO2 T01280111
KDUJ 260614Z AUTO 25006KT 9SM BKN015 OVC021 13/11 A2959 RMK AO2 T01280111
KDUJ 260553Z AUTO 26004KT 9SM OVC013 13/11 A2959 RMK AO2 SLP014 T01280111 10161 20117 50006
KDUJ 260550Z AUTO 27004KT 8SM SCT008 OVC013 13/11 A2959 RMK AO2
KDUJ 260453Z AUTO 26006KT 5SM BR BKN005 OVC011 13/12 A2958 RMK AO2 CIG 004V008 SLP012 T01280117 401780106
KDUJ 260353Z AUTO 26009KT 6SM BR OVC005 13/11 A2956 RMK AO2 SLP008 T01280111
KDUJ 260253Z AUTO 25006KT 8SM OVC007 13/11 A2955 RMK AO2 SLP005 T01280111 51018
KDUJ 260237Z AUTO 29004KT 9SM BKN009 OVC080 12/11 A2955 RMK AO2 CIG 007V010 T01220106
KDUJ 260229Z AUTO 27004KT 8SM BKN010 OVC080 12/11 A2955 RMK AO2 LTG DSNT NE T01220106
KDUJ 260153Z AUTO 25004KT 9SM FEW050 BKN080 12/10 A2954 RMK AO2 LTG DSNT E SLP001 T01220100
KDUJ 260053Z AUTO 26010KT 8SM BKN080 OVC100 14/10 A2951 RMK AO2 LTG DSNT NE AND S SLP991 T01390100
KDUJ 252353Z AUTO 00000KT 10SM FEW036 FEW060 OVC100 16/12 A2950 RMK AO2 LTG DSNT S SLP983 60000 T01610122 10178 20144 50007
KDUJ 252349Z AUTO 00000KT 10SM FEW036 SCT060 OVC100 16/12 A2950 RMK AO2 LTG DSNT S
KDUJ 252333Z AUTO 22003KT 10SM VCTS SCT037 BKN065 OVC090 16/12 A2950 RMK AO2 T01610117
KDUJ 252253Z AUTO 21003KT 10SM OVC085 17/11 A2948 RMK AO2 SLP979 T01670111